createdAt,value
2018-03-16T00:01:32.073Z,99717.33
2018-03-16T00:03:58.364Z,99710.89
2018-03-16T00:06:24.476Z,99718.67
2018-03-16T00:08:50.530Z,99711.73
2018-03-16T00:11:16.604Z,99708.25
2018-03-16T00:13:42.666Z,99704.79
2018-03-16T00:16:08.740Z,99703.97
2018-03-16T00:18:34.816Z,99698.39
2018-03-16T00:21:00.907Z,99702.79
2018-03-16T00:23:26.938Z,99699.76
2018-03-16T00:25:53.030Z,99701.03
2018-03-16T00:28:19.140Z,99701.58
2018-03-16T00:30:45.153Z,99698.08
2018-03-16T00:33:11.208Z,99699.88
2018-03-16T00:35:37.417Z,99703.33
2018-03-16T00:38:03.477Z,99700.83
2018-03-16T00:40:29.551Z,99706.02
2018-03-16T00:42:56.025Z,99706.08
2018-03-16T00:45:22.126Z,99693.63
2018-03-16T00:47:48.146Z,99691.89
2018-03-16T00:50:14.179Z,99701.70
2018-03-16T00:52:40.240Z,99695.69
2018-03-16T00:55:06.325Z,99702.67
2018-03-16T00:57:32.364Z,99712.51
2018-03-16T00:59:58.766Z,99712.19
2018-03-16T01:02:24.802Z,99714.34
2018-03-16T01:04:50.928Z,99712.64
2018-03-16T01:07:17.066Z,99709.09
2018-03-16T01:09:43.103Z,99709.68
2018-03-16T01:12:09.160Z,99703.65
2018-03-16T01:14:35.202Z,99704.92
2018-03-16T01:17:01.234Z,99706.10
2018-03-16T01:19:27.346Z,99701.44
2018-03-16T01:21:53.402Z,99710.13
2018-03-16T01:24:19.473Z,99701.56
2018-03-16T01:26:45.507Z,99705.48
2018-03-16T01:29:11.612Z,99698.56
2018-03-16T01:31:37.699Z,99705.16
2018-03-16T01:34:03.897Z,99703.45
2018-03-16T01:36:29.948Z,99711.69
2018-03-16T01:38:56.129Z,99708.12
2018-03-16T01:41:22.193Z,99705.09
2018-03-16T01:43:48.240Z,99713.41
2018-03-16T01:46:14.346Z,99707.75
2018-03-16T01:48:40.376Z,99711.64
2018-03-16T01:51:06.715Z,99705.63
2018-03-16T01:53:32.767Z,99699.25
2018-03-16T01:55:58.795Z,99701.30
2018-03-16T01:58:24.869Z,99707.69
2018-03-16T02:00:50.901Z,99706.02
2018-03-16T02:03:17.051Z,99708.23
2018-03-16T02:05:43.327Z,99707.84
2018-03-16T02:08:09.408Z,99715.67
2018-03-16T02:10:35.446Z,99709.56
2018-03-16T02:13:01.507Z,99710.45
2018-03-16T02:15:27.634Z,99719.56
2018-03-16T02:17:53.694Z,99719.11
2018-03-16T02:20:19.709Z,99709.66
2018-03-16T02:22:45.862Z,99722.70
2018-03-16T02:25:11.924Z,99723.96
2018-03-16T02:27:37.952Z,99726.58
2018-03-16T02:30:03.998Z,99721.82
2018-03-16T02:32:30.067Z,99714.05
2018-03-16T02:34:56.177Z,99717.88
2018-03-16T02:37:22.215Z,99713.10
2018-03-16T02:39:48.369Z,99717.44
2018-03-16T02:42:14.457Z,99717.59
2018-03-16T02:44:40.503Z,99714.14
2018-03-16T02:47:06.666Z,99722.38
2018-03-16T02:49:32.670Z,99727.95
2018-03-16T02:51:58.703Z,99714.55
2018-03-16T02:54:24.806Z,99723.23
2018-03-16T02:56:51.016Z,99715.55
2018-03-16T02:59:17.099Z,99722.86
2018-03-16T03:01:43.150Z,99720.69
2018-03-16T03:04:09.236Z,99719.38
2018-03-16T03:06:35.305Z,99720.23
2018-03-16T03:09:01.339Z,99712.53
2018-03-16T03:11:27.391Z,99715.98
2018-03-16T03:13:53.791Z,99718.59
2018-03-16T03:16:19.817Z,99723.75
2018-03-16T03:18:45.853Z,99719.85
2018-03-16T03:21:12.078Z,99726.30
2018-03-16T03:23:38.132Z,99723.88
2018-03-16T03:26:04.187Z,99726.84
2018-03-16T03:28:30.206Z,99728.61
2018-03-16T03:30:56.283Z,99723.48
2018-03-16T03:33:22.402Z,99725.56
2018-03-16T03:35:48.452Z,99733.30
2018-03-16T03:38:14.628Z,99730.75
2018-03-16T03:40:40.724Z,99735.05
2018-03-16T03:43:06.766Z,99738.02
2018-03-16T03:45:32.797Z,99737.22
2018-03-16T03:47:58.835Z,99734.62
2018-03-16T03:50:24.956Z,99731.12
2018-03-16T03:52:51.043Z,99727.58
2018-03-16T03:55:17.098Z,99729.82
2018-03-16T03:57:43.127Z,99736.74
2018-03-16T04:00:09.185Z,99730.80
2018-03-16T04:02:35.198Z,99731.61
2018-03-16T04:05:01.311Z,99728.55
2018-03-16T04:07:27.343Z,99728.08
2018-03-16T04:09:53.390Z,99733.84
2018-03-16T04:12:19.568Z,99736.83
2018-03-16T04:14:45.628Z,99722.56
2018-03-16T04:17:11.669Z,99723.89
2018-03-16T04:19:37.717Z,99722.58
2018-03-16T04:22:04.141Z,99726.08
2018-03-16T04:24:30.284Z,99714.00
2018-03-16T04:26:56.323Z,99734.19
2018-03-16T04:29:22.380Z,99731.67
2018-03-16T04:31:48.462Z,99738.17
2018-03-16T04:34:14.508Z,99732.94
2018-03-16T04:36:40.565Z,99733.94
2018-03-16T04:39:06.858Z,99737.87
2018-03-16T04:41:32.988Z,99729.25
2018-03-16T04:43:59.050Z,99731.42
2018-03-16T04:46:25.202Z,99729.42
2018-03-16T04:48:51.276Z,99733.66
2018-03-16T04:51:17.325Z,99735.09
2018-03-16T04:53:43.373Z,99730.70
2018-03-16T04:56:09.805Z,99732.94
2018-03-16T04:58:35.843Z,99740.80
2018-03-16T05:01:01.899Z,99739.12
2018-03-16T05:03:28.035Z,99743.84
2018-03-16T05:05:54.081Z,99740.91
2018-03-16T05:08:20.356Z,99743.47
2018-03-16T05:10:46.419Z,99750.04
2018-03-16T05:13:12.484Z,99747.38
2018-03-16T05:15:38.584Z,99750.41
2018-03-16T05:18:04.586Z,99741.31
2018-03-16T05:20:30.687Z,99752.73
2018-03-16T05:22:56.778Z,99750.65
2018-03-16T05:25:22.810Z,99757.45
2018-03-16T05:27:48.874Z,99754.43
2018-03-16T05:30:14.924Z,99751.84
2018-03-16T05:32:41.015Z,99750.13
2018-03-16T05:35:07.062Z,99750.56
2018-03-16T05:37:33.122Z,99753.20
2018-03-16T05:39:59.155Z,99762.69
2018-03-16T05:42:25.234Z,99759.25
2018-03-16T05:44:51.421Z,99766.16
2018-03-16T05:47:17.507Z,99767.58
2018-03-16T05:49:43.577Z,99775.00
2018-03-16T05:52:09.797Z,99778.36
2018-03-16T05:54:35.834Z,99766.72
2018-03-16T05:57:02.041Z,99771.56
2018-03-16T05:59:28.116Z,99772.52
2018-03-16T06:01:54.155Z,99770.64
2018-03-16T06:04:20.222Z,99766.36
2018-03-16T06:06:46.242Z,99776.67
2018-03-16T06:09:12.327Z,99779.75
2018-03-16T06:11:38.392Z,99779.87
2018-03-16T06:14:04.439Z,99776.80
2018-03-16T06:16:30.506Z,99777.75
2018-03-16T06:18:56.542Z,99783.79
2018-03-16T06:21:22.584Z,99782.47
2018-03-16T06:23:48.668Z,99785.95
2018-03-16T06:26:14.716Z,99785.14
2018-03-16T06:28:40.802Z,99792.98
2018-03-16T06:31:06.833Z,99799.86
2018-03-16T06:33:32.856Z,99802.75
2018-03-16T06:35:59.072Z,99805.06
2018-03-16T06:38:25.156Z,99806.39
2018-03-16T06:40:51.216Z,99808.97
2018-03-16T06:43:17.266Z,99816.28
2018-03-16T06:45:43.315Z,99821.03
2018-03-16T06:48:09.419Z,99821.95
2018-03-16T06:50:35.451Z,99821.91
2018-03-16T06:53:01.505Z,99833.21
2018-03-16T06:55:27.550Z,99827.12
2018-03-16T06:57:53.636Z,99829.35
2018-03-16T07:00:19.665Z,99837.52
2018-03-16T07:02:45.782Z,99845.76
2018-03-16T07:05:11.889Z,99850.13
2018-03-16T07:07:37.923Z,99841.56
2018-03-16T07:10:03.966Z,99844.16
2018-03-16T07:12:30.031Z,99844.94
2018-03-16T07:14:56.070Z,99846.30
2018-03-16T07:17:22.121Z,99853.15
2018-03-16T07:19:48.194Z,99857.51
2018-03-16T07:22:14.226Z,99860.98
2018-03-16T07:24:40.307Z,99858.84
2018-03-16T07:27:06.342Z,99864.89
2018-03-16T07:29:32.394Z,99865.33
2018-03-16T07:31:58.456Z,99871.37
2018-03-16T07:34:24.552Z,99872.63
2018-03-16T07:36:50.646Z,99877.82
2018-03-16T07:39:16.674Z,99878.30
2018-03-16T07:41:42.739Z,99876.98
2018-03-16T07:44:08.905Z,99883.05
2018-03-16T07:46:34.962Z,99879.59
2018-03-16T07:49:01.020Z,99888.67
2018-03-16T07:51:27.224Z,99888.23
2018-03-16T07:53:53.258Z,99895.16
2018-03-16T07:56:19.360Z,99892.56
2018-03-16T07:58:46.368Z,99889.55
2018-03-16T08:01:12.397Z,99902.91
2018-03-16T08:03:38.630Z,99903.30
2018-03-16T08:06:04.695Z,99905.03
2018-03-16T08:08:30.738Z,99905.06
2018-03-16T08:10:56.813Z,99909.80
2018-03-16T08:13:23.207Z,99907.22
2018-03-16T08:15:49.214Z,99908.11
2018-03-16T08:18:15.245Z,99909.37
2018-03-16T08:20:41.464Z,99916.64
2018-03-16T08:23:07.488Z,99912.40
2018-03-16T08:25:33.715Z,99919.68
2018-03-16T08:27:59.945Z,99914.52
2018-03-16T08:30:26.019Z,99924.84
2018-03-16T08:32:52.103Z,99919.24
2018-03-16T08:35:18.158Z,99926.16
2018-03-16T08:37:44.235Z,99927.41
2018-03-16T08:40:10.265Z,99932.16
2018-03-16T08:42:51.221Z,99927.45
2018-03-16T08:45:17.230Z,99936.49
2018-03-16T08:47:43.493Z,99943.81
2018-03-16T08:50:09.544Z,99938.24
2018-03-16T08:52:35.597Z,99935.66
2018-03-16T08:55:01.634Z,99939.52
2018-03-16T08:57:27.664Z,99944.68
2018-03-16T08:59:53.717Z,99933.89
2018-03-16T09:02:19.839Z,99934.33
2018-03-16T09:04:45.938Z,99943.84
2018-03-16T09:07:12.040Z,99947.70
2018-03-16T09:09:38.304Z,99941.23
2018-03-16T09:12:04.336Z,99941.23
2018-03-16T09:14:30.473Z,99945.95
2018-03-16T09:16:56.516Z,99943.39
2018-03-16T09:19:22.583Z,99948.11
2018-03-16T09:21:48.622Z,99945.11
2018-03-16T09:24:14.807Z,99948.08
2018-03-16T09:26:40.873Z,99955.83
2018-03-16T09:29:07.491Z,99955.84
2018-03-16T09:31:33.538Z,99946.77
2018-03-16T09:33:59.685Z,99953.68
2018-03-16T09:36:25.776Z,99940.34
2018-03-16T09:38:51.914Z,99952.87
2018-03-16T09:41:18.211Z,99961.02
2018-03-16T09:43:44.259Z,99953.67
2018-03-16T09:46:10.308Z,99954.55
2018-03-16T09:48:36.412Z,99953.69
2018-03-16T09:51:02.448Z,99955.45
2018-03-16T09:53:28.870Z,99961.05
2018-03-16T09:55:54.930Z,99970.08
2018-03-16T09:58:21.165Z,99961.48
2018-03-16T10:00:47.272Z,99962.79
2018-03-16T10:03:13.339Z,99968.38
2018-03-16T10:05:39.419Z,99971.82
2018-03-16T10:08:05.458Z,99974.84
2018-03-16T10:10:31.647Z,99974.42
2018-03-16T10:12:57.744Z,99973.55
2018-03-16T10:15:23.847Z,99968.38
2018-03-16T10:17:49.906Z,99980.02
2018-03-16T10:20:15.965Z,99981.31
2018-03-16T10:22:42.017Z,99987.34
2018-03-16T10:25:08.036Z,99979.99
2018-03-16T10:27:34.098Z,99982.16
2018-03-16T10:30:00.191Z,99980.84
2018-03-16T10:32:26.317Z,99985.16
2018-03-16T10:34:52.327Z,99986.86
2018-03-16T10:37:18.365Z,99986.88
2018-03-16T10:39:44.541Z,99991.22
2018-03-16T10:42:10.604Z,99999.84
2018-03-16T10:44:36.669Z,100006.31
2018-03-16T10:47:02.728Z,99997.27
2018-03-16T10:49:28.797Z,100001.12
2018-03-16T10:51:54.897Z,100006.73
2018-03-16T10:54:20.958Z,100002.85
2018-03-16T10:56:47.108Z,100003.69
2018-03-16T10:59:13.173Z,100009.73
2018-03-16T11:01:45.297Z,100014.05
2018-03-16T11:04:13.359Z,100020.06
2018-03-16T11:06:39.415Z,100022.65
2018-03-16T11:09:05.501Z,100029.12
2018-03-16T11:11:31.573Z,100030.84
2018-03-16T11:13:57.628Z,100032.11
2018-03-16T11:16:23.703Z,100034.27
2018-03-16T11:18:49.760Z,100028.26
2018-03-16T11:21:15.808Z,100027.38
2018-03-16T11:23:41.849Z,100031.25
2018-03-16T11:26:08.043Z,100032.56
2018-03-16T11:28:34.079Z,100040.31
2018-03-16T11:31:00.132Z,100036.87
2018-03-16T11:33:26.394Z,100043.33
2018-03-16T11:35:52.484Z,100042.02
2018-03-16T11:38:18.539Z,100044.17
2018-03-16T11:40:44.646Z,100051.05
2018-03-16T11:43:10.705Z,100042.90
2018-03-16T11:45:36.742Z,100041.17
2018-03-16T11:48:02.956Z,100052.36
2018-03-16T11:50:28.999Z,100050.20
2018-03-16T11:52:55.689Z,100051.92
2018-03-16T11:55:21.802Z,100048.89
2018-03-16T11:57:48.057Z,100054.94
2018-03-16T12:00:14.201Z,100059.66
2018-03-16T12:02:40.536Z,100059.66
2018-03-16T12:05:06.693Z,100060.53
2018-03-16T12:07:32.698Z,100062.22
2018-03-16T12:09:58.855Z,100061.34
2018-03-16T12:12:24.934Z,100052.73
2018-03-16T12:14:51.010Z,100063.47
2018-03-16T12:17:17.059Z,100056.59
2018-03-16T12:19:43.109Z,100058.76
2018-03-16T12:22:09.125Z,100065.19
2018-03-16T12:24:35.160Z,100069.03
2018-03-16T12:27:01.253Z,100062.59
2018-03-16T12:29:27.277Z,100071.59
2018-03-16T12:31:53.383Z,100064.75
2018-03-16T12:34:34.311Z,100060.86
2018-03-16T12:37:00.693Z,100067.74
2018-03-16T12:39:26.742Z,100063.03
2018-03-16T12:41:52.817Z,100068.20
2018-03-16T12:44:18.905Z,100072.91
2018-03-16T12:46:44.934Z,100071.63
2018-03-16T12:49:11.170Z,100073.34
2018-03-16T12:51:42.191Z,100074.17
2018-03-16T12:54:03.431Z,100081.07
2018-03-16T12:56:29.528Z,100070.31
2018-03-16T12:58:55.582Z,100072.47
2018-03-16T13:01:21.656Z,100077.59
2018-03-16T13:03:47.731Z,100077.17
2018-03-16T13:06:13.978Z,100087.89
2018-03-16T13:08:40.028Z,100089.64
2018-03-16T13:11:06.130Z,100085.73
2018-03-16T13:13:32.166Z,100085.73
2018-03-16T13:15:58.411Z,100096.09
2018-03-16T13:18:24.474Z,100097.33
2018-03-16T13:20:50.513Z,100097.78
2018-03-16T13:23:16.629Z,100098.61
2018-03-16T13:25:42.667Z,100101.20
2018-03-16T13:28:08.770Z,100109.75
2018-03-16T13:33:28.171Z,100111.45
2018-03-16T13:35:54.246Z,100111.42
2018-03-16T13:38:20.303Z,100111.47
2018-03-16T13:40:46.581Z,100117.91
2018-03-16T13:43:12.679Z,100118.80
2018-03-16T13:45:38.755Z,100125.61
2018-03-16T13:48:04.813Z,100126.51
2018-03-16T13:50:31.076Z,100126.12
2018-03-16T13:52:57.133Z,100128.25
2018-03-16T13:55:23.768Z,100127.86
2018-03-16T13:57:49.821Z,100135.54
2018-03-16T14:00:15.898Z,100134.22
2018-03-16T14:02:41.935Z,100144.16
2018-03-16T14:05:08.028Z,100140.27
2018-03-16T14:07:34.072Z,100146.73
2018-03-16T14:10:00.133Z,100149.32
2018-03-16T14:12:26.308Z,100152.75
2018-03-16T14:14:52.397Z,100150.12
2018-03-16T14:17:18.463Z,100159.57
2018-03-16T14:19:44.549Z,100157.88
2018-03-16T14:22:10.883Z,100163.83
2018-03-16T14:24:36.939Z,100168.98
2018-03-16T14:27:03.026Z,100167.28
2018-03-16T14:29:29.063Z,100163.34
2018-03-16T14:31:55.131Z,100166.33
2018-03-16T14:34:21.332Z,100165.55
2018-03-16T14:36:47.366Z,100166.38
2018-03-16T14:39:13.406Z,100174.15
2018-03-16T14:41:39.472Z,100170.19
2018-03-16T14:44:05.587Z,100180.16
2018-03-16T14:46:31.650Z,100176.66
2018-03-16T14:48:57.735Z,100176.69
2018-03-16T14:51:23.795Z,100179.20
2018-03-16T14:53:49.976Z,100179.22
2018-03-16T14:56:16.170Z,100175.39
2018-03-16T14:58:42.215Z,100187.44
2018-03-16T15:01:08.321Z,100189.98
2018-03-16T15:03:34.436Z,100186.03
2018-03-16T15:06:00.615Z,100185.66
2018-03-16T15:08:26.661Z,100182.20
2018-03-16T15:10:52.740Z,100185.66
2018-03-16T15:13:18.835Z,100193.82
2018-03-16T15:15:44.889Z,100194.72
2018-03-16T15:18:10.973Z,100188.64
2018-03-16T15:20:37.147Z,100196.28
2018-03-16T15:23:03.229Z,100201.88
2018-03-16T15:25:29.308Z,100200.20
2018-03-16T15:27:55.383Z,100195.02
2018-03-16T15:30:21.498Z,100200.16
2018-03-16T15:32:47.682Z,100207.02
2018-03-16T15:35:13.783Z,100213.44
2018-03-16T15:37:39.841Z,100213.06
2018-03-16T15:40:05.881Z,100212.64
2018-03-16T15:42:31.964Z,100216.06
2018-03-16T15:44:58.043Z,100218.19
2018-03-16T15:47:24.128Z,100219.48
2018-03-16T15:49:50.326Z,100220.73
2018-03-16T15:52:16.429Z,100216.84
2018-03-16T15:54:42.646Z,100224.13
2018-03-16T15:57:08.735Z,100227.98
2018-03-16T15:59:35.050Z,100224.92
2018-03-16T16:02:01.135Z,100234.00
2018-03-16T16:04:27.222Z,100228.84
2018-03-16T16:06:53.315Z,100241.26
2018-03-16T16:09:19.405Z,100241.22
2018-03-16T16:11:45.454Z,100233.94
2018-03-16T16:14:11.547Z,100245.06
2018-03-16T16:16:37.603Z,100251.05
2018-03-16T16:19:03.722Z,100252.39
2018-03-16T16:21:29.862Z,100254.98
2018-03-16T16:23:55.913Z,100265.62
2018-03-16T16:26:22.103Z,100264.42
2018-03-16T16:28:48.236Z,100267.46
2018-03-16T16:31:14.334Z,100266.63
2018-03-16T16:33:40.410Z,100271.25
2018-03-16T16:36:06.617Z,100272.54
2018-03-16T16:38:32.740Z,100278.58
2018-03-16T16:40:58.799Z,100277.66
2018-03-16T16:43:24.964Z,100292.62
2018-03-16T16:45:51.045Z,100290.44
2018-03-16T16:48:17.145Z,100287.47
2018-03-16T16:50:43.203Z,100297.73
2018-03-16T16:53:09.308Z,100301.99
2018-03-16T16:55:35.363Z,100297.64
2018-03-16T16:58:01.414Z,100303.13
2018-03-16T17:00:27.521Z,100312.11
2018-03-16T17:02:54.439Z,100313.89
2018-03-16T17:05:20.550Z,100317.36
2018-03-16T17:07:46.605Z,100318.10
2018-03-16T17:10:12.889Z,100320.31
2018-03-16T17:12:38.974Z,100336.94
2018-03-16T17:15:05.666Z,100334.31
2018-03-16T17:17:31.802Z,100346.36
2018-03-16T17:19:57.887Z,100350.27
2018-03-16T17:22:24.009Z,100349.45
2018-03-16T17:24:50.103Z,100347.23
2018-03-16T17:27:16.247Z,100351.91
2018-03-16T17:29:42.388Z,100345.39
2018-03-16T17:32:08.478Z,100352.70
2018-03-16T17:34:34.508Z,100358.55
2018-03-16T17:37:04.780Z,100355.62
2018-03-16T17:39:30.958Z,100362.41
2018-03-16T17:41:57.180Z,100359.06
2018-03-16T17:44:23.290Z,100361.64
2018-03-16T17:46:49.374Z,100361.61
2018-03-16T17:49:15.488Z,100366.74
2018-03-16T17:51:41.564Z,100365.41
2018-03-16T17:54:07.993Z,100368.78
2018-03-16T17:56:34.039Z,100366.72
2018-03-16T17:59:00.084Z,100372.30
2018-03-16T18:01:26.198Z,100380.38
2018-03-16T18:03:52.303Z,100377.06
2018-03-16T18:06:18.379Z,100385.58
2018-03-16T18:08:45.052Z,100386.41
2018-03-16T18:11:11.146Z,100392.70
2018-03-16T18:13:37.235Z,100394.84
2018-03-16T18:16:18.202Z,100388.03
2018-03-16T18:18:44.380Z,100393.63
2018-03-16T18:21:10.487Z,100401.73
2018-03-16T18:23:36.568Z,100398.27
2018-03-16T18:26:02.620Z,100400.45
2018-03-16T18:28:30.106Z,100400.75
2018-03-16T18:30:56.270Z,100407.63
2018-03-16T18:33:22.367Z,100406.86
2018-03-16T18:35:48.489Z,100411.56
2018-03-16T18:38:14.564Z,100411.59
2018-03-16T18:40:40.650Z,100412.36
2018-03-16T18:43:07.566Z,100413.29
2018-03-16T18:45:33.641Z,100419.20
2018-03-16T18:47:59.749Z,100423.03
2018-03-16T18:50:26.444Z,100420.44
2018-03-16T18:52:53.362Z,100431.62
2018-03-16T18:55:19.456Z,100425.98
2018-03-16T18:57:45.553Z,100428.23
2018-03-16T19:00:11.720Z,100424.35
2018-03-16T19:02:37.898Z,100418.69
2018-03-16T19:05:03.994Z,100421.61
2018-03-16T19:07:30.084Z,100429.77
2018-03-16T19:09:56.523Z,100429.27
2018-03-16T19:12:22.624Z,100424.65
2018-03-16T19:14:48.739Z,100419.69
2018-03-16T19:17:14.863Z,100430.03
2018-03-16T19:19:40.962Z,100437.36
2018-03-16T19:22:07.594Z,100423.63
2018-03-16T19:24:33.758Z,100436.28
2018-03-16T19:26:59.873Z,100447.45
2018-03-16T19:29:26.764Z,100451.86
2018-03-16T19:31:53.239Z,100448.23
2018-03-16T19:34:19.324Z,100445.28
2018-03-16T19:36:45.462Z,100452.91
2018-03-16T19:39:11.731Z,100450.23
2018-03-16T19:41:37.827Z,100455.06
2018-03-16T19:44:03.994Z,100456.41
2018-03-16T19:46:30.054Z,100455.31
2018-03-16T19:48:56.716Z,100456.29
2018-03-16T19:51:23.201Z,100456.98
2018-03-16T19:53:49.345Z,100455.25
2018-03-16T19:56:15.387Z,100461.68
2018-03-16T19:58:42.466Z,100455.25
2018-03-16T20:01:08.535Z,100455.34
2018-03-16T20:03:34.786Z,100455.78
2018-03-16T20:06:00.920Z,100461.20
2018-03-16T20:08:27.073Z,100459.55
2018-03-16T20:10:53.158Z,100462.02
2018-03-16T20:13:19.593Z,100465.44
2018-03-16T20:15:45.676Z,100463.03
2018-03-16T20:18:11.707Z,100460.39
2018-03-16T20:20:37.796Z,100470.20
2018-03-16T20:23:04.300Z,100469.73
2018-03-16T20:25:30.480Z,100468.17
2018-03-16T20:27:56.591Z,100470.14
2018-03-16T20:30:22.859Z,100468.08
2018-03-16T20:32:48.986Z,100480.14
2018-03-16T20:35:15.098Z,100482.65
2018-03-16T20:37:41.212Z,100480.05
2018-03-16T20:40:07.413Z,100488.50
2018-03-16T20:42:33.511Z,100489.38
2018-03-16T20:44:59.838Z,100486.81
2018-03-16T20:47:25.918Z,100491.68
2018-03-16T20:49:52.004Z,100499.30
2018-03-16T20:52:18.228Z,100494.63
2018-03-16T20:54:44.278Z,100502.50
2018-03-16T20:57:10.395Z,100509.70
2018-03-16T20:59:36.491Z,100501.12
2018-03-16T21:02:03.340Z,100506.56
2018-03-16T21:04:30.545Z,100504.44
2018-03-16T21:06:56.605Z,100502.70
2018-03-16T21:09:22.710Z,100500.78
2018-03-16T21:11:48.931Z,100501.93
2018-03-16T21:14:14.971Z,100502.70
2018-03-16T21:16:41.943Z,100501.77
2018-03-16T21:19:08.093Z,100512.55
2018-03-16T21:21:34.225Z,100511.53
2018-03-16T21:24:00.344Z,100512.41
2018-03-16T21:26:26.528Z,100513.62
2018-03-16T21:28:53.394Z,100519.95
2018-03-16T21:31:19.519Z,100515.69
2018-03-16T21:33:46.519Z,100521.13
2018-03-16T21:36:13.616Z,100516.32
2018-03-16T21:38:39.781Z,100527.00
2018-03-16T21:41:06.078Z,100528.20
2018-03-16T21:43:32.160Z,100529.05
2018-03-16T21:45:58.214Z,100524.20
2018-03-16T21:48:24.314Z,100530.27
2018-03-16T21:50:50.400Z,100534.05
2018-03-16T21:53:16.527Z,100534.81
2018-03-16T21:55:42.613Z,100542.19
2018-03-16T21:58:08.698Z,100546.12
2018-03-16T22:00:34.836Z,100542.63
2018-03-16T22:03:00.892Z,100543.26
2018-03-16T22:05:26.962Z,100544.50
2018-03-16T22:07:53.155Z,100550.89
2018-03-16T22:10:19.206Z,100545.79
2018-03-16T22:12:45.289Z,100545.67
2018-03-16T22:15:11.428Z,100550.34
2018-03-16T22:17:37.561Z,100548.86
2018-03-16T22:20:03.602Z,100557.05
2018-03-16T22:22:29.666Z,100547.98
2018-03-16T22:24:55.758Z,100554.88
2018-03-16T22:27:21.815Z,100547.45
2018-03-16T22:29:47.937Z,100549.95
2018-03-16T22:32:14.051Z,100552.52
2018-03-16T22:34:40.158Z,100556.37
2018-03-16T22:37:06.245Z,100554.72
2018-03-16T22:39:32.303Z,100563.63
2018-03-16T22:41:58.499Z,100562.83
2018-03-16T22:44:24.548Z,100566.16
2018-03-16T22:46:50.620Z,100570.09
2018-03-16T22:49:16.716Z,100561.91
2018-03-16T22:51:42.762Z,100575.95
2018-03-16T22:54:08.875Z,100575.55
2018-03-16T22:56:34.962Z,100582.37
2018-03-16T22:59:01.030Z,100578.52
2018-03-16T23:01:27.211Z,100578.40
2018-03-16T23:03:53.264Z,100575.79
2018-03-16T23:06:19.356Z,100573.02
2018-03-16T23:08:45.370Z,100578.42
2018-03-16T23:11:11.505Z,100580.50
2018-03-16T23:13:37.614Z,100578.46
2018-03-16T23:16:03.656Z,100586.80
2018-03-16T23:18:29.747Z,100587.67
2018-03-16T23:20:55.889Z,100577.89
2018-03-16T23:23:21.937Z,100579.37
2018-03-16T23:25:47.990Z,100580.64
2018-03-16T23:28:14.056Z,100593.44
2018-03-16T23:30:40.134Z,100590.69
2018-03-16T23:33:06.225Z,100597.51
2018-03-16T23:35:32.291Z,100585.42
2018-03-16T23:37:58.380Z,100593.05
2018-03-16T23:40:24.449Z,100591.50
2018-03-16T23:42:50.597Z,100596.09
2018-03-16T23:45:16.650Z,100590.13
2018-03-16T23:47:42.710Z,100586.58
2018-03-16T23:50:08.752Z,100598.43
2018-03-16T23:52:34.806Z,100596.70
2018-03-16T23:55:00.919Z,100593.21
2018-03-16T23:57:26.979Z,100591.83
2018-03-16T23:59:53.045Z,100595.98
